IDs: Format: Raw Decoded Include TAF

Data at: 2032 UTC 23 Mar 2018

METAR for:KDRT (Del Rio Intl, TX, US)
Text:KDRT 231953Z AUTO 13015G20KT 10SM CLR 27/17 A2995 RMK AO2 SLP128 T02670172 $
Temperature: 26.7°C ( 80°F)
Dewpoint: 17.2°C ( 63°F) [RH = 56%]
Pressure (altimeter):29.95 inches Hg (1014.3 mb) [Sea level pressure: 1012.8 mb]
Winds:from the SE (130 degrees) at 17 MPH (15 knots; 7.7 m/s) gusting to 23 MPH (20 knots; 10.3 m/s)
Visibility:10 or more sm (16+ km)
Ceiling:at least 12,000 feet AGL
Clouds:sky clear below 12,000 feet AGL
QC Flag:automated observation with no human augmentation; SOME DATA ABOVE MAY BE INACCURATE!!!"$" is an indication the sensor requires maintenance.